Flight Track Log - Related Links

Times and Time Zones

All times are in EDT time to prevent confusion due to time zone crossing. See the FEX100 flight status page for this flight to view local times or setup timezone preferences in your user account.

Time Position Orientation Groundspeed Altitude Reporting Facility
EDT Latitude Longitude Course Direction KTS MPH feet Rate Location/Type
Thu 07:28:12 PM 46.5500 -80.6500 145° Southeast 160 184 6,600  Level Toronto Center
Thu 07:30:12 PM 46.4500 -80.6000 158° South 170 196 10,000 1,500 Climbing Toronto Center
Thu 07:31:00 PM 46.2925 -80.6189 151° Southeast  Level Estimated
Thu 07:31:12 PM 46.4167 -80.5667 145° Southeast 170 196 11,100  Level Toronto Center
Thu 07:32:12 PM 46.3667 -80.5333 155° Southeast 180 207 12,500 1,300 Climbing Toronto Center
Thu 07:33:12 PM 46.3167 -80.5000 155° Southeast 180 207 13,700 1,000 Climbing Toronto Center
Thu 07:35:12 PM 46.2333 -80.4500 157° South 180 207 15,500 900 Climbing Toronto Center
Thu 07:36:12 PM 46.1833 -80.4000 145° Southeast 190 219 16,400 500 Climbing Toronto Center
Thu 07:38:12 PM 46.0833 -80.3333 155° Southeast 210 242 17,000 200 Climbing Toronto Center
Thu 07:39:12 PM 46.0333 -80.3000 155° Southeast 220 253 17,000  Level Toronto Center
Thu 07:40:12 PM 45.9667 -80.2833 170° South 230 265 17,000  Level Toronto Center
Thu 07:41:12 PM 45.9000 -80.2333 152° Southeast 230 265 17,000  Level Toronto Center
Thu 07:42:12 PM 45.8500 -80.1833 145° Southeast 230 265 17,000  Level Toronto Center
Thu 07:43:12 PM 45.7833 -80.1500 161° South 230 265 17,000  Level Toronto Center
Thu 07:44:12 PM 45.7333 -80.1167 155° Southeast 230 265 17,000 50 Level Toronto Center
Thu 07:45:12 PM 45.6833 -80.0667 145° Southeast 230 265 17,100 50 Climbing Toronto Center
Thu 07:46:12 PM 45.6167 -80.0333 161° South 230 265 17,100 -50 Level Toronto Center
Thu 07:47:12 PM 45.5667 -79.9833 145° Southeast 230 265 17,000 -50 Descending Toronto Center
Thu 07:48:12 PM 45.5000 -79.9667 170° South 230 265 17,000  Level Toronto Center
Thu 07:49:12 PM 45.4500 -79.9167 145° Southeast 230 265 17,000  Level Toronto Center
Thu 07:50:12 PM 45.3833 -79.9000 170° South 230 265 17,000 50 Level Toronto Center
Thu 07:51:12 PM 45.3333 -79.8500 145° Southeast 230 265 17,100 33 Climbing Toronto Center
Thu 07:53:12 PM 45.2167 -79.8000 163° South 220 253 17,100 -33 Level Toronto Center
Thu 07:54:12 PM 45.1500 -79.7667 161° South 220 253 17,000 -50 Descending Toronto Center
Thu 07:55:12 PM 45.1000 -79.7500 167° South 220 253 17,000  Level Toronto Center
Thu 07:57:12 PM 44.9833 -79.7000 163° South 220 253 17,000  Level Toronto Center
Thu 07:58:12 PM 44.9167 -79.6833 170° South 220 253 17,000  Level Toronto Center
Thu 08:00:12 PM 44.8000 -79.6333 163° South 220 253 17,000 -1,043 Level Toronto Center
Thu 08:03:11 PM 44.6000 -79.5667 153° Southeast 280 322 11,800 -1,989 Descending Toronto Center
Thu 08:06:11 PM 44.3500 -79.4667 193° South 280 322 5,100 -1,560 Descending Toronto Center
Thu 08:08:11 PM 44.2167 -79.4167 165° South 240 276 4,000 -333 Descending Toronto Center
Thu 08:12:11 PM 44.0000 -79.2833 206° Southwest 220 253 3,100 -129 Descending Toronto Center
Thu 08:15:11 PM 43.8333 -79.1667 206° Southwest 230 265 3,100  Level Toronto Center
Thu 08:16:11 PM 43.7833 -79.1167 144° Southeast 190 219 3,100 -150 Level Toronto Center
Thu 08:19:11 PM 43.7500 -79.2333 293° West 140 161 2,500 -320 Descending Toronto Center
Thu 08:21:11 PM 43.8167 -79.3167 318° Northwest 130 150 1,500 -500 Descending Toronto Center
Thu 08:22:11 PM 43.8333 -79.3333 324° Northwest 120 138 1,000 -500 Descending Toronto Center
Thu 08:24:00 PM 43.8500 -79.3667 206° Southwest  Level FlightAware Approximate
Thu 08:31:00 PM 43.8622 -79.3700 206° Southwest  Level Estimated
Thu 08:32:00 PM 43.8622 -79.3700 206° Southwest  Level Estimated

Login

Don't have an account? Register now (free) for customized features, flight alerts, and more!